createdAt,value
2023-01-23T00:01:36.719Z,5.98
2023-01-23T00:04:05.999Z,5.98
2023-01-23T00:06:34.788Z,5.97
2023-01-23T00:09:03.966Z,5.96
2023-01-23T00:11:32.228Z,5.95
2023-01-23T00:14:02.076Z,5.93
2023-01-23T00:16:33.067Z,5.92
2023-01-23T00:19:01.384Z,5.90
2023-01-23T00:21:30.687Z,5.89
2023-01-23T00:24:01.032Z,5.89
2023-01-23T00:26:33.001Z,5.87
2023-01-23T00:29:02.923Z,5.85
2023-01-23T00:31:37.005Z,5.85
2023-01-23T00:34:08.694Z,5.84
2023-01-23T00:36:39.988Z,5.82
2023-01-23T00:39:20.799Z,5.82
2023-01-23T00:41:50.284Z,5.80
2023-01-23T00:44:18.817Z,5.78
2023-01-23T00:46:48.377Z,5.77
2023-01-23T00:49:16.619Z,5.76
2023-01-23T00:51:45.640Z,5.75
2023-01-23T00:54:14.121Z,5.74
2023-01-23T00:56:43.009Z,5.74
2023-01-23T00:59:11.686Z,5.72
2023-01-23T01:01:41.116Z,5.72
2023-01-23T01:04:09.947Z,5.70
2023-01-23T01:06:38.092Z,5.69
2023-01-23T01:09:06.339Z,5.68
2023-01-23T01:11:34.852Z,5.67
2023-01-23T01:14:02.962Z,5.66
2023-01-23T01:16:31.887Z,5.65
2023-01-23T01:19:01.201Z,5.65
2023-01-23T01:21:29.322Z,5.65
2023-01-23T01:23:58.012Z,5.64
2023-01-23T01:26:26.167Z,5.64
2023-01-23T01:28:54.858Z,5.63
2023-01-23T01:31:23.984Z,5.62
2023-01-23T01:33:52.487Z,5.61
2023-01-23T01:36:22.818Z,5.61
2023-01-23T01:38:52.598Z,5.60
2023-01-23T01:41:20.854Z,5.59
2023-01-23T01:43:49.692Z,5.58
2023-01-23T01:46:25.967Z,5.57
2023-01-23T01:49:13.169Z,5.58
2023-01-23T01:51:59.463Z,5.57
2023-01-23T01:54:27.637Z,5.56
2023-01-23T01:57:10.240Z,5.55
2023-01-23T01:59:59.608Z,5.54
2023-01-23T02:02:46.462Z,5.55
2023-01-23T02:05:45.417Z,5.56
2023-01-23T02:08:30.150Z,5.56
2023-01-23T02:10:58.958Z,5.56
2023-01-23T02:13:30.251Z,5.55
2023-01-23T02:16:00.433Z,5.55
2023-01-23T02:18:31.428Z,5.55
2023-01-23T02:21:03.936Z,5.55
2023-01-23T02:23:53.826Z,5.56
2023-01-23T02:26:31.602Z,5.54
2023-01-23T02:29:00.371Z,5.53
2023-01-23T02:31:28.558Z,5.52
2023-01-23T02:33:59.161Z,5.51
2023-01-23T02:36:30.771Z,5.50
2023-01-23T02:39:11.147Z,5.49
2023-01-23T02:41:45.903Z,5.48
2023-01-23T02:44:21.069Z,5.48
2023-01-23T02:46:49.759Z,5.47
2023-01-23T02:49:17.941Z,5.46
2023-01-23T02:51:46.103Z,5.45
2023-01-23T02:54:14.234Z,5.44
2023-01-23T02:56:42.531Z,5.43
2023-01-23T02:59:11.604Z,5.43
2023-01-23T03:01:41.378Z,5.42
2023-01-23T03:04:09.650Z,5.42
2023-01-23T03:06:38.179Z,5.42
2023-01-23T03:09:13.464Z,5.43
2023-01-23T03:11:45.047Z,5.44
2023-01-23T03:14:16.840Z,5.44
2023-01-23T03:16:46.006Z,5.44
2023-01-23T03:19:14.236Z,5.45
2023-01-23T03:21:42.740Z,5.45
2023-01-23T03:24:13.869Z,5.46
2023-01-23T03:26:43.757Z,5.45
2023-01-23T03:29:21.413Z,5.46
2023-01-23T03:31:50.841Z,5.45
2023-01-23T03:34:18.990Z,5.45
2023-01-23T03:36:47.180Z,5.45
2023-01-23T03:39:15.378Z,5.44
2023-01-23T03:41:43.455Z,5.43
2023-01-23T03:44:12.159Z,5.42
2023-01-23T03:46:40.488Z,5.41
2023-01-23T03:49:08.569Z,5.42
2023-01-23T03:51:37.277Z,5.42
2023-01-23T03:54:05.752Z,5.43
2023-01-23T03:56:33.967Z,5.42
2023-01-23T03:59:02.181Z,5.42
2023-01-23T04:01:30.359Z,5.43
2023-01-23T04:03:59.216Z,5.44
2023-01-23T04:06:27.549Z,5.45
2023-01-23T04:08:55.698Z,5.44
2023-01-23T04:11:25.211Z,5.44
2023-01-23T04:13:54.869Z,5.45
2023-01-23T04:16:23.979Z,5.45
2023-01-23T04:18:52.101Z,5.44
2023-01-23T04:21:20.922Z,5.43
2023-01-23T04:23:49.147Z,5.43
2023-01-23T04:26:17.505Z,5.43
2023-01-23T04:28:45.728Z,5.44
2023-01-23T04:31:14.146Z,5.44
2023-01-23T04:33:42.556Z,5.44
2023-01-23T04:36:11.916Z,5.45
2023-01-23T04:38:40.196Z,5.46
2023-01-23T04:41:08.501Z,5.45
2023-01-23T04:43:36.626Z,5.45
2023-01-23T04:46:05.456Z,5.45
2023-01-23T04:48:33.702Z,5.47
2023-01-23T04:51:02.012Z,5.48
2023-01-23T04:53:30.677Z,5.46
2023-01-23T04:55:59.051Z,5.46
2023-01-23T04:58:27.508Z,5.46
2023-01-23T05:01:03.356Z,5.45
2023-01-23T05:03:31.713Z,5.43
2023-01-23T05:05:59.771Z,5.43
2023-01-23T05:08:28.380Z,5.43
2023-01-23T05:10:56.706Z,5.43
2023-01-23T05:13:24.843Z,5.45
2023-01-23T05:15:53.340Z,5.46
2023-01-23T05:18:21.418Z,5.47
2023-01-23T05:20:49.735Z,5.47
2023-01-23T05:23:18.258Z,5.46
2023-01-23T05:25:46.626Z,5.44
2023-01-23T05:28:14.922Z,5.44
2023-01-23T05:30:43.577Z,5.43
2023-01-23T05:33:12.382Z,5.43
2023-01-23T05:35:40.816Z,5.43
2023-01-23T05:38:12.413Z,5.44
2023-01-23T05:40:41.228Z,5.43
2023-01-23T05:43:14.651Z,5.42
2023-01-23T05:45:43.346Z,5.41
2023-01-23T05:48:11.557Z,5.42
2023-01-23T05:50:41.164Z,5.42
2023-01-23T05:53:09.286Z,5.42
2023-01-23T05:55:40.894Z,5.40
2023-01-23T05:58:09.060Z,5.39
2023-01-23T06:00:37.443Z,5.39
2023-01-23T06:03:06.187Z,5.38
2023-01-23T06:05:34.345Z,5.38
2023-01-23T06:08:02.684Z,5.38
2023-01-23T06:10:31.037Z,5.39
2023-01-23T06:12:59.220Z,5.39
2023-01-23T06:15:27.431Z,5.37
2023-01-23T06:17:55.621Z,5.36
2023-01-23T06:20:23.986Z,5.34
2023-01-23T06:22:52.166Z,5.32
2023-01-23T06:25:20.412Z,5.32
2023-01-23T06:27:48.979Z,5.31
2023-01-23T06:30:17.333Z,5.30
2023-01-23T06:32:46.796Z,5.30
2023-01-23T06:35:15.173Z,5.29
2023-01-23T06:37:43.291Z,5.29
2023-01-23T06:40:12.251Z,5.30
2023-01-23T06:42:42.634Z,5.31
2023-01-23T06:45:12.310Z,5.32
2023-01-23T06:47:40.345Z,5.33
2023-01-23T06:50:09.424Z,5.33
2023-01-23T06:52:37.904Z,5.33
2023-01-23T06:55:06.439Z,5.30
2023-01-23T06:57:35.348Z,5.28
2023-01-23T07:00:04.939Z,5.26
2023-01-23T07:02:33.245Z,5.24
2023-01-23T07:05:01.558Z,5.25
2023-01-23T07:07:29.726Z,5.24
2023-01-23T07:09:57.855Z,5.25
2023-01-23T07:12:25.951Z,5.25
2023-01-23T07:14:54.589Z,5.26
2023-01-23T07:17:22.826Z,5.27
2023-01-23T07:19:51.137Z,5.30
2023-01-23T07:22:22.428Z,5.33
2023-01-23T07:24:51.002Z,5.38
2023-01-23T07:27:19.193Z,5.43
2023-01-23T07:29:47.490Z,5.48
2023-01-23T07:32:15.551Z,5.52
2023-01-23T07:34:43.696Z,5.57
2023-01-23T07:37:12.036Z,5.61
2023-01-23T07:39:40.184Z,5.66
2023-01-23T07:42:08.392Z,5.71
2023-01-23T07:44:36.531Z,5.78
2023-01-23T07:47:04.665Z,5.91
2023-01-23T07:49:32.867Z,6.69
2023-01-23T07:52:01.939Z,8.19
2023-01-23T07:54:30.234Z,9.85
2023-01-23T07:56:58.401Z,11.27
2023-01-23T07:59:26.845Z,12.18
2023-01-23T08:01:55.780Z,12.79
2023-01-23T08:04:25.394Z,13.61
2023-01-23T08:06:54.080Z,14.81
2023-01-23T08:09:22.204Z,16.23
2023-01-23T08:11:52.181Z,17.67
2023-01-23T08:14:20.754Z,19.16
2023-01-23T08:16:50.296Z,20.59
2023-01-23T08:19:19.510Z,21.92
2023-01-23T08:21:47.825Z,23.05
2023-01-23T08:24:15.900Z,23.62
2023-01-23T08:26:44.638Z,23.66
2023-01-23T08:29:13.267Z,23.58
2023-01-23T08:31:42.551Z,23.88
2023-01-23T08:34:10.764Z,24.67
2023-01-23T08:36:39.122Z,25.68
2023-01-23T08:39:07.468Z,26.69
2023-01-23T08:41:36.171Z,27.59
2023-01-23T08:44:04.689Z,28.43
2023-01-23T08:46:32.810Z,29.24
2023-01-23T08:49:01.829Z,29.88
2023-01-23T08:51:31.722Z,30.35
2023-01-23T08:54:00.198Z,30.87
2023-01-23T08:56:28.792Z,31.42
2023-01-23T08:58:58.107Z,31.96
2023-01-23T09:01:27.813Z,32.47
2023-01-23T09:03:59.146Z,33.04
2023-01-23T09:06:27.469Z,33.57
2023-01-23T09:08:55.715Z,34.01
2023-01-23T09:11:24.507Z,34.42
2023-01-23T09:13:54.190Z,34.82
2023-01-23T09:16:22.486Z,35.19
2023-01-23T09:18:50.606Z,35.56
2023-01-23T09:21:19.157Z,35.82
2023-01-23T09:23:47.569Z,36.02
2023-01-23T09:26:17.604Z,36.19
2023-01-23T09:28:47.024Z,36.38
2023-01-23T09:31:15.231Z,36.54
2023-01-23T09:33:43.661Z,36.69
2023-01-23T09:36:11.803Z,36.85
2023-01-23T09:38:40.054Z,36.99
2023-01-23T09:41:27.428Z,37.11
2023-01-23T09:44:12.858Z,37.23
2023-01-23T09:46:56.431Z,37.41
2023-01-23T09:49:30.647Z,37.57
2023-01-23T09:52:03.877Z,37.76
2023-01-23T09:54:43.442Z,37.71
2023-01-23T09:57:19.479Z,37.11
2023-01-23T10:00:24.196Z,35.85
2023-01-23T10:02:54.718Z,34.36
2023-01-23T10:05:40.737Z,33.52
2023-01-23T10:08:35.459Z,33.31
2023-01-23T10:11:24.547Z,33.79
2023-01-23T10:14:09.990Z,34.63
2023-01-23T10:17:07.064Z,35.34
2023-01-23T10:19:38.268Z,36.06
2023-01-23T10:22:33.760Z,36.84
2023-01-23T10:25:10.763Z,37.60
2023-01-23T10:27:47.186Z,38.17
2023-01-23T10:30:35.118Z,38.56
2023-01-23T10:33:19.952Z,38.49
2023-01-23T10:36:01.937Z,38.50
2023-01-23T10:38:42.237Z,38.60
2023-01-23T10:41:13.288Z,38.77
2023-01-23T10:43:52.611Z,38.87
2023-01-23T10:46:31.738Z,39.01
2023-01-23T10:49:01.688Z,39.27
2023-01-23T10:51:38.794Z,39.46
2023-01-23T10:54:40.378Z,39.53
2023-01-23T10:57:08.686Z,39.52
2023-01-23T10:59:41.541Z,39.51
2023-01-23T11:02:27.371Z,39.55
2023-01-23T11:04:56.130Z,39.59
2023-01-23T11:07:28.992Z,39.47
2023-01-23T11:10:00.273Z,39.04
2023-01-23T11:12:34.251Z,38.73
2023-01-23T11:15:31.365Z,37.77
2023-01-23T11:18:01.780Z,36.43
2023-01-23T11:20:41.217Z,35.56
2023-01-23T11:23:09.661Z,34.88
2023-01-23T11:25:44.131Z,34.34
2023-01-23T11:28:46.172Z,33.92
2023-01-23T11:31:18.013Z,33.52
2023-01-23T11:34:13.103Z,32.44
2023-01-23T11:37:04.104Z,31.23
2023-01-23T11:40:00.487Z,30.67
2023-01-23T11:42:29.502Z,31.08
2023-01-23T11:45:00.438Z,31.44
2023-01-23T11:47:37.841Z,32.04
2023-01-23T11:50:06.049Z,32.62
2023-01-23T11:52:46.173Z,33.03
2023-01-23T11:55:39.388Z,33.25
2023-01-23T11:59:05.081Z,33.41
2023-01-23T12:02:02.966Z,33.43
2023-01-23T12:04:58.660Z,33.39
2023-01-23T12:07:27.751Z,32.68
2023-01-23T12:10:17.418Z,31.60
2023-01-23T12:12:49.135Z,30.11
2023-01-23T12:15:40.295Z,28.82
2023-01-23T12:18:38.607Z,27.34
2023-01-23T12:21:19.553Z,25.82
2023-01-23T12:24:15.438Z,24.94
2023-01-23T12:26:54.025Z,24.35
2023-01-23T12:29:50.567Z,23.79
2023-01-23T12:32:40.344Z,23.09
2023-01-23T12:35:36.771Z,22.30
2023-01-23T12:38:20.008Z,21.51
2023-01-23T12:40:56.410Z,20.75
2023-01-23T12:43:59.601Z,20.12
2023-01-23T12:46:53.781Z,19.49
2023-01-23T12:49:35.635Z,19.17
2023-01-23T12:52:13.856Z,18.78
2023-01-23T12:54:48.905Z,18.35
2023-01-23T12:57:19.558Z,17.96
2023-01-23T13:00:06.752Z,17.72
2023-01-23T13:02:44.009Z,17.59
2023-01-23T13:05:24.325Z,17.48
2023-01-23T13:07:58.851Z,17.42
2023-01-23T13:10:36.338Z,17.39
2023-01-23T13:13:04.437Z,17.36
2023-01-23T13:15:40.388Z,17.29
2023-01-23T13:18:26.751Z,17.26
2023-01-23T13:20:59.439Z,17.22
2023-01-23T13:23:29.375Z,17.13
2023-01-23T13:26:18.721Z,17.08
2023-01-23T13:28:51.006Z,17.14
2023-01-23T13:31:42.651Z,17.28
2023-01-23T13:34:30.971Z,17.30
2023-01-23T13:37:31.033Z,17.23
2023-01-23T13:40:09.872Z,17.23
2023-01-23T13:42:38.040Z,17.28
2023-01-23T13:45:27.291Z,17.33
2023-01-23T14:21:50.907Z,16.42
2023-01-23T14:24:41.331Z,16.30
2023-01-23T14:27:51.317Z,16.19
2023-01-23T14:30:25.878Z,16.07
2023-01-23T14:32:54.669Z,16.03
2023-01-23T14:35:25.152Z,15.94
2023-01-23T14:37:57.280Z,15.81
2023-01-23T14:40:29.466Z,15.74
2023-01-23T14:43:08.007Z,15.71
2023-01-23T14:45:37.772Z,15.70
2023-01-23T14:48:13.879Z,15.69
2023-01-23T14:50:42.719Z,15.63
2023-01-23T14:53:16.265Z,15.59
2023-01-23T14:55:49.129Z,15.58
2023-01-23T14:58:25.815Z,15.58
2023-01-23T15:00:55.291Z,15.54
2023-01-23T15:03:42.195Z,15.52
2023-01-23T15:06:19.668Z,15.51
2023-01-23T15:08:49.016Z,15.49
2023-01-23T15:11:26.023Z,15.44
2023-01-23T15:13:57.531Z,15.41
2023-01-23T15:16:31.529Z,15.27
2023-01-23T15:19:21.429Z,15.06
2023-01-23T15:21:50.705Z,14.89
2023-01-23T15:24:26.489Z,14.73
2023-01-23T15:27:05.437Z,14.57
2023-01-23T15:29:34.604Z,14.45
2023-01-23T15:32:03.036Z,14.40
2023-01-23T15:34:35.379Z,14.39
2023-01-23T15:37:19.805Z,14.28
2023-01-23T15:39:58.314Z,14.13
2023-01-23T15:42:35.039Z,13.99
2023-01-23T15:45:06.818Z,13.86
2023-01-23T15:47:35.591Z,13.72
2023-01-23T15:50:03.925Z,13.55
2023-01-23T15:52:50.109Z,13.43
2023-01-23T15:55:23.758Z,13.28
2023-01-23T15:57:53.303Z,13.18
2023-01-23T16:00:27.293Z,13.07
2023-01-23T16:02:57.938Z,12.94
2023-01-23T16:05:31.016Z,12.83
2023-01-23T16:08:01.758Z,12.77
2023-01-23T16:10:34.416Z,12.73
2023-01-23T16:13:03.165Z,12.65
2023-01-23T16:15:33.776Z,12.57
2023-01-23T16:18:04.037Z,12.48
2023-01-23T16:20:37.198Z,12.43
2023-01-23T16:23:16.643Z,12.38
2023-01-23T16:25:46.393Z,12.37
2023-01-23T16:28:17.613Z,12.35
2023-01-23T16:30:47.261Z,12.33
2023-01-23T16:33:16.289Z,12.26
2023-01-23T16:35:45.951Z,12.16
2023-01-23T16:38:21.970Z,12.07
2023-01-23T16:40:51.343Z,12.00
2023-01-23T16:43:21.644Z,11.91
2023-01-23T16:45:50.110Z,11.83
2023-01-23T16:48:28.868Z,11.79
2023-01-23T16:51:05.212Z,11.75
2023-01-23T16:53:38.448Z,11.71
2023-01-23T16:56:16.972Z,11.67
2023-01-23T16:58:45.623Z,11.64
2023-01-23T17:01:21.693Z,11.59
2023-01-23T17:04:02.222Z,11.48
2023-01-23T17:06:31.218Z,11.38
2023-01-23T17:08:59.626Z,11.25
2023-01-23T17:11:35.164Z,11.15
2023-01-23T17:14:08.075Z,11.07
2023-01-23T17:16:36.763Z,11.02
2023-01-23T17:19:17.178Z,10.98
2023-01-23T17:21:45.832Z,10.92
2023-01-23T17:24:18.222Z,10.86
2023-01-23T17:26:47.419Z,10.80
2023-01-23T17:29:16.411Z,10.74
2023-01-23T17:31:45.051Z,10.70
2023-01-23T17:34:28.320Z,10.66
2023-01-23T17:36:57.910Z,10.60
2023-01-23T17:39:26.384Z,10.57
2023-01-23T17:41:54.578Z,10.56
2023-01-23T17:44:22.839Z,10.53
2023-01-23T17:46:51.369Z,10.52
2023-01-23T17:49:30.805Z,10.50
2023-01-23T17:52:01.275Z,10.48
2023-01-23T17:54:29.684Z,10.45
2023-01-23T17:56:58.193Z,10.42
2023-01-23T17:59:26.515Z,10.41
2023-01-23T18:01:57.926Z,10.40
2023-01-23T18:04:26.611Z,10.38
2023-01-23T18:06:55.324Z,10.35
2023-01-23T18:09:24.001Z,10.33
2023-01-23T18:11:52.365Z,10.32
2023-01-23T18:14:30.189Z,10.30
2023-01-23T18:16:58.456Z,10.28
2023-01-23T18:19:28.220Z,10.26
2023-01-23T18:21:57.331Z,10.23
2023-01-23T18:24:30.159Z,10.20
2023-01-23T18:27:10.900Z,10.18
2023-01-23T18:30:24.462Z,10.17
2023-01-23T18:33:33.969Z,10.16
2023-01-23T18:36:31.919Z,10.12
2023-01-23T18:39:21.772Z,10.10
2023-01-23T18:41:59.562Z,10.08
2023-01-23T18:44:31.713Z,10.07
2023-01-23T18:47:00.045Z,10.04
2023-01-23T18:49:32.964Z,10.04
2023-01-23T18:52:12.333Z,10.04
2023-01-23T18:55:06.630Z,10.02
2023-01-23T18:57:55.327Z,10.01
2023-01-23T19:00:34.455Z,10.00
2023-01-23T19:03:14.097Z,9.99
2023-01-23T19:05:43.222Z,9.98
2023-01-23T19:08:30.749Z,9.98
2023-01-23T19:11:05.691Z,9.97
2023-01-23T19:13:59.555Z,9.96
2023-01-23T19:16:32.873Z,9.94
2023-01-23T19:19:23.639Z,9.93
2023-01-23T19:21:51.950Z,9.92
2023-01-23T19:24:20.756Z,9.90
2023-01-23T19:26:50.765Z,9.89
2023-01-23T19:29:22.377Z,9.86
2023-01-23T19:32:04.683Z,9.85
2023-01-23T19:34:33.790Z,9.87
2023-01-23T19:37:02.246Z,9.87
2023-01-23T19:39:30.522Z,9.86
2023-01-23T19:41:59.652Z,9.85
2023-01-23T19:44:28.321Z,9.85
2023-01-23T19:46:56.806Z,9.85
2023-01-23T19:49:25.620Z,9.83
2023-01-23T19:51:53.975Z,9.80
2023-01-23T19:54:24.188Z,9.77
2023-01-23T19:56:52.763Z,9.73
2023-01-23T19:59:20.976Z,9.70
2023-01-23T20:01:52.571Z,9.65
2023-01-23T20:04:26.154Z,9.63
2023-01-23T20:06:54.332Z,9.59
2023-01-23T20:09:22.776Z,9.57
2023-01-23T20:11:51.373Z,9.54
2023-01-23T20:14:19.422Z,9.50
2023-01-23T20:16:47.596Z,9.46
2023-01-23T20:19:16.737Z,9.43
2023-01-23T20:21:47.696Z,9.40
2023-01-23T20:24:17.044Z,9.37
2023-01-23T20:26:45.466Z,9.34
2023-01-23T20:29:13.501Z,9.30
2023-01-23T20:31:42.416Z,9.24
2023-01-23T20:34:10.703Z,9.21
2023-01-23T20:36:38.949Z,9.14
2023-01-23T20:39:07.737Z,9.10
2023-01-23T20:41:35.989Z,9.05
2023-01-23T20:44:04.511Z,9.01
2023-01-23T20:46:32.879Z,8.96
2023-01-23T20:49:01.145Z,8.91
2023-01-23T20:51:29.320Z,8.87
2023-01-23T20:53:57.545Z,8.84
2023-01-23T20:56:25.667Z,8.81
2023-01-23T20:58:55.978Z,8.77
2023-01-23T21:01:26.478Z,8.73
2023-01-23T21:03:55.069Z,8.68
2023-01-23T21:06:23.336Z,8.64
2023-01-23T21:08:52.250Z,8.60
2023-01-23T21:11:20.917Z,8.57
2023-01-23T21:13:52.516Z,8.53
2023-01-23T21:16:20.805Z,8.49
2023-01-23T21:18:49.499Z,8.46
2023-01-23T21:21:21.370Z,8.43
2023-01-23T21:23:51.056Z,8.39
2023-01-23T21:26:22.519Z,8.35
2023-01-23T21:28:52.454Z,8.32
2023-01-23T21:31:33.167Z,8.30
2023-01-23T21:34:08.264Z,8.27
2023-01-23T21:36:37.135Z,8.24
2023-01-23T21:39:07.015Z,8.21
2023-01-23T21:41:36.232Z,8.17
2023-01-23T21:44:04.586Z,8.14
2023-01-23T21:46:32.951Z,8.11
2023-01-23T21:49:01.115Z,8.08
2023-01-23T21:51:30.380Z,8.05
2023-01-23T21:53:58.645Z,8.03
2023-01-23T21:56:27.145Z,8.00
2023-01-23T21:58:56.880Z,7.97
2023-01-23T22:01:26.346Z,7.95
2023-01-23T22:03:54.473Z,7.91
2023-01-23T22:06:23.032Z,7.88
2023-01-23T22:08:51.190Z,7.84
2023-01-23T22:11:19.679Z,7.80
2023-01-23T22:13:47.990Z,7.75
2023-01-23T22:16:16.478Z,7.70
2023-01-23T22:18:44.851Z,7.64
2023-01-23T22:21:13.163Z,7.57
2023-01-23T22:23:41.379Z,7.52
2023-01-23T22:26:11.802Z,7.48
2023-01-23T22:28:42.125Z,7.42
2023-01-23T22:31:13.698Z,7.37
2023-01-23T22:33:45.414Z,7.32
2023-01-23T22:36:16.867Z,7.29
2023-01-23T22:38:50.746Z,7.28
2023-01-23T22:41:19.557Z,7.27
2023-01-23T22:43:53.164Z,7.26
2023-01-23T22:46:22.611Z,7.24
2023-01-23T22:48:51.868Z,7.23
2023-01-23T22:51:25.881Z,7.21
2023-01-23T22:53:56.414Z,7.19
2023-01-23T22:56:26.623Z,7.18
2023-01-23T22:58:56.665Z,7.16
2023-01-23T23:01:26.143Z,7.14
2023-01-23T23:03:57.228Z,7.13
2023-01-23T23:06:26.874Z,7.10
2023-01-23T23:08:55.638Z,7.07
2023-01-23T23:11:27.281Z,7.04
2023-01-23T23:13:57.198Z,7.01
2023-01-23T23:16:29.101Z,7.00
2023-01-23T23:19:00.637Z,6.98
2023-01-23T23:21:33.331Z,6.95
2023-01-23T23:24:01.789Z,6.93
2023-01-23T23:26:31.321Z,6.91
2023-01-23T23:29:02.138Z,6.89
2023-01-23T23:31:30.777Z,6.86
2023-01-23T23:33:59.087Z,6.86
2023-01-23T23:36:27.461Z,6.85
2023-01-23T23:38:55.754Z,6.84
2023-01-23T23:41:24.653Z,6.83
2023-01-23T23:43:52.915Z,6.83
2023-01-23T23:46:22.591Z,6.82
2023-01-23T23:48:50.702Z,6.81
2023-01-23T23:51:20.228Z,6.79
2023-01-23T23:53:49.686Z,6.78
2023-01-23T23:56:23.612Z,6.76
2023-01-23T23:58:54.228Z,6.74
